sensor_id;sensor_type;location;lat;lon;timestamp;pressure;altitude;pressure_sealevel;temperature;humidity
10992;BME280;5549;47.028;15.514;2023-02-16T00:01:47;97643.44;;;3.09;67.80
10992;BME280;5549;47.028;15.514;2023-02-16T00:04:18;97645.19;;;3.08;67.83
10992;BME280;5549;47.028;15.514;2023-02-16T00:06:47;97644.44;;;3.05;67.72
10992;BME280;5549;47.028;15.514;2023-02-16T00:09:20;97648.91;;;3.01;67.67
10992;BME280;5549;47.028;15.514;2023-02-16T00:11:49;97644.66;;;2.99;67.57
10992;BME280;5549;47.028;15.514;2023-02-16T00:14:39;97653.34;;;2.98;67.53
10992;BME280;5549;47.028;15.514;2023-02-16T00:17:10;97653.41;;;2.96;67.14
10992;BME280;5549;47.028;15.514;2023-02-16T00:19:40;97650.97;;;2.92;67.32
10992;BME280;5549;47.028;15.514;2023-02-16T00:22:10;97650.97;;;2.92;67.34
10992;BME280;5549;47.028;15.514;2023-02-16T00:24:38;97654.41;;;2.92;66.75
10992;BME280;5549;47.028;15.514;2023-02-16T00:27:12;97651.88;;;2.90;66.95
10992;BME280;5549;47.028;15.514;2023-02-16T00:29:44;97654.47;;;2.90;66.59
10992;BME280;5549;47.028;15.514;2023-02-16T00:32:16;97652.19;;;2.58;68.51
10992;BME280;5549;47.028;15.514;2023-02-16T00:34:43;97654.41;;;2.69;67.43
10992;BME280;5549;47.028;15.514;2023-02-16T00:37:13;97655.13;;;2.72;67.79
10992;BME280;5549;47.028;15.514;2023-02-16T00:39:43;97640.41;;;2.73;67.73
10992;BME280;5549;47.028;15.514;2023-02-16T00:42:16;97635.22;;;2.73;68.20
10992;BME280;5549;47.028;15.514;2023-02-16T00:44:48;97641.38;;;2.70;68.48
10992;BME280;5549;47.028;15.514;2023-02-16T00:47:20;97641.47;;;2.67;68.59
10992;BME280;5549;47.028;15.514;2023-02-16T00:49:52;97641.47;;;2.67;67.89
10992;BME280;5549;47.028;15.514;2023-02-16T00:52:33;97643.19;;;2.68;67.32
10992;BME280;5549;47.028;15.514;2023-02-16T00:55:04;97644.97;;;2.66;67.52
10992;BME280;5549;47.028;15.514;2023-02-16T00:57:36;97644.06;;;2.67;67.45
10992;BME280;5549;47.028;15.514;2023-02-16T01:00:16;97644.03;;;2.69;67.57
10992;BME280;5549;47.028;15.514;2023-02-16T01:02:47;97643.06;;;2.71;67.08
10992;BME280;5549;47.028;15.514;2023-02-16T01:05:18;97643.06;;;2.71;66.89
10992;BME280;5549;47.028;15.514;2023-02-16T01:07:46;97636.13;;;2.72;67.69
10992;BME280;5549;47.028;15.514;2023-02-16T01:10:31;97641.25;;;2.73;68.15
10992;BME280;5549;47.028;15.514;2023-02-16T01:13:17;97639.56;;;2.72;68.25
10992;BME280;5549;47.028;15.514;2023-02-16T01:15:48;97635.22;;;2.73;67.61
10992;BME280;5549;47.028;15.514;2023-02-16T01:18:17;97632.59;;;2.74;67.54
10992;BME280;5549;47.028;15.514;2023-02-16T01:20:48;97639.47;;;2.75;67.40
10992;BME280;5549;47.028;15.514;2023-02-16T01:23:16;97639.47;;;2.75;67.05
10992;BME280;5549;47.028;15.514;2023-02-16T01:25:43;97637.66;;;2.77;67.49
10992;BME280;5549;47.028;15.514;2023-02-16T01:28:19;97641.16;;;2.76;67.24
10992;BME280;5549;47.028;15.514;2023-02-16T01:30:49;97635.97;;;2.76;67.45
10992;BME280;5549;47.028;15.514;2023-02-16T01:33:18;97635.22;;;2.73;67.52
10992;BME280;5549;47.028;15.514;2023-02-16T01:35:48;97638.84;;;2.69;67.91
10992;BME280;5549;47.028;15.514;2023-02-16T01:38:18;97629.41;;;2.66;68.65
10992;BME280;5549;47.028;15.514;2023-02-16T01:40:56;97633.13;;;2.59;69.28
10992;BME280;5549;47.028;15.514;2023-02-16T01:43:27;97630.59;;;2.57;68.95
10992;BME280;5549;47.028;15.514;2023-02-16T01:46:04;97634.09;;;2.56;68.40
10992;BME280;5549;47.028;15.514;2023-02-16T01:48:34;97628.06;;;2.56;67.53
10992;BME280;5549;47.028;15.514;2023-02-16T01:51:10;97622.75;;;2.59;68.39
10992;BME280;5549;47.028;15.514;2023-02-16T01:53:41;97624.50;;;2.58;68.37
10992;BME280;5549;47.028;15.514;2023-02-16T01:56:23;97630.53;;;2.59;68.01
10992;BME280;5549;47.028;15.514;2023-02-16T01:59:03;97626.25;;;2.58;68.33
10992;BME280;5549;47.028;15.514;2023-02-16T02:01:43;97624.56;;;2.57;67.40
10992;BME280;5549;47.028;15.514;2023-02-16T02:04:24;97623.72;;;2.56;67.62
10992;BME280;5549;47.028;15.514;2023-02-16T02:07:19;97622.97;;;2.53;67.58
10992;BME280;5549;47.028;15.514;2023-02-16T02:09:56;97617.00;;;2.51;67.44
10992;BME280;5549;47.028;15.514;2023-02-16T02:12:31;97615.34;;;2.48;66.90
10992;BME280;5549;47.028;15.514;2023-02-16T02:15:01;97605.84;;;2.49;66.54
10992;BME280;5549;47.028;15.514;2023-02-16T02:17:32;97605.84;;;2.49;66.80
10992;BME280;5549;47.028;15.514;2023-02-16T02:20:11;97604.97;;;2.48;66.37
10992;BME280;5549;47.028;15.514;2023-02-16T02:23:23;97603.28;;;2.47;66.70
10992;BME280;5549;47.028;15.514;2023-02-16T02:26:49;97602.56;;;2.44;66.93
10992;BME280;5549;47.028;15.514;2023-02-16T02:29:53;97603.47;;;2.43;66.85
10992;BME280;5549;47.028;15.514;2023-02-16T02:32:39;97600.13;;;2.39;67.20
10992;BME280;5549;47.028;15.514;2023-02-16T02:35:24;97603.94;;;2.29;68.51
10992;BME280;5549;47.028;15.514;2023-02-16T02:37:59;97593.69;;;2.26;68.58
10992;BME280;5549;47.028;15.514;2023-02-16T02:40:45;97602.34;;;2.25;67.87
10992;BME280;5549;47.028;15.514;2023-02-16T02:43:20;97593.03;;;2.19;67.85
10992;BME280;5549;47.028;15.514;2023-02-16T02:45:55;97590.56;;;2.16;68.09
10992;BME280;5549;47.028;15.514;2023-02-16T02:48:29;97591.41;;;2.17;67.71
10992;BME280;5549;47.028;15.514;2023-02-16T02:50:58;97592.25;;;2.17;67.38
10992;BME280;5549;47.028;15.514;2023-02-16T02:53:44;97590.56;;;2.16;67.24
10992;BME280;5549;47.028;15.514;2023-02-16T02:56:17;97583.63;;;2.17;67.32
10992;BME280;5549;47.028;15.514;2023-02-16T02:59:08;97587.97;;;2.16;67.31
10992;BME280;5549;47.028;15.514;2023-02-16T03:01:59;97591.56;;;2.12;67.46
10992;BME280;5549;47.028;15.514;2023-02-16T03:04:30;97595.34;;;2.02;69.01
10992;BME280;5549;47.028;15.514;2023-02-16T03:07:01;97594.78;;;1.94;69.50
10992;BME280;5549;47.028;15.514;2023-02-16T03:09:32;97593.38;;;1.84;70.05
10992;BME280;5549;47.028;15.514;2023-02-16T03:12:03;97590.53;;;1.91;69.71
10992;BME280;5549;47.028;15.514;2023-02-16T03:14:55;97583.47;;;1.97;69.40
10992;BME280;5549;47.028;15.514;2023-02-16T03:17:30;97588.59;;;1.98;69.29
10992;BME280;5549;47.028;15.514;2023-02-16T03:20:20;97584.19;;;2.00;69.59
10992;BME280;5549;47.028;15.514;2023-02-16T03:23:07;97590.69;;;1.87;71.94
10992;BME280;5549;47.028;15.514;2023-02-16T03:25:54;97590.31;;;1.98;70.92
10992;BME280;5549;47.028;15.514;2023-02-16T03:28:41;97589.31;;;2.02;71.16
10992;BME280;5549;47.028;15.514;2023-02-16T03:31:33;97582.66;;;1.95;71.47
10992;BME280;5549;47.028;15.514;2023-02-16T03:34:04;97586.84;;;1.99;71.28
10992;BME280;5549;47.028;15.514;2023-02-16T03:36:38;97585.09;;;1.99;70.63
10992;BME280;5549;47.028;15.514;2023-02-16T03:39:07;97578.13;;;2.01;70.93
10992;BME280;5549;47.028;15.514;2023-02-16T03:41:41;97578.88;;;2.05;70.15
10992;BME280;5549;47.028;15.514;2023-02-16T03:44:09;97583.09;;;2.07;70.54
10992;BME280;5549;47.028;15.514;2023-02-16T03:46:38;97583.00;;;2.10;69.95
10992;BME280;5549;47.028;15.514;2023-02-16T03:49:06;97581.94;;;2.16;69.98
10992;BME280;5549;47.028;15.514;2023-02-16T03:51:34;97582.78;;;2.16;69.95
10992;BME280;5549;47.028;15.514;2023-02-16T03:54:03;97567.13;;;2.19;69.91
10992;BME280;5549;47.028;15.514;2023-02-16T03:56:31;97570.63;;;2.18;70.18
10992;BME280;5549;47.028;15.514;2023-02-16T03:58:58;97573.91;;;2.23;70.35
10992;BME280;5549;47.028;15.514;2023-02-16T04:01:26;97578.97;;;2.27;70.04
10992;BME280;5549;47.028;15.514;2023-02-16T04:03:57;97578.88;;;2.30;69.49
10992;BME280;5549;47.028;15.514;2023-02-16T04:06:25;97571.16;;;2.28;69.34
10992;BME280;5549;47.028;15.514;2023-02-16T04:08:52;97576.28;;;2.30;69.30
10992;BME280;5549;47.028;15.514;2023-02-16T04:11:20;97580.81;;;2.23;70.03
10992;BME280;5549;47.028;15.514;2023-02-16T04:14:06;97575.91;;;2.15;70.28
10992;BME280;5549;47.028;15.514;2023-02-16T04:16:40;97571.50;;;2.17;69.93
10992;BME280;5549;47.028;15.514;2023-02-16T04:19:09;97571.56;;;2.16;70.84
10992;BME280;5549;47.028;15.514;2023-02-16T04:21:39;97568.44;;;2.06;70.85
10992;BME280;5549;47.028;15.514;2023-02-16T04:24:08;97569.75;;;1.93;72.07
10992;BME280;5549;47.028;15.514;2023-02-16T04:26:35;97569.91;;;1.88;71.45
10992;BME280;5549;47.028;15.514;2023-02-16T04:29:03;97568.88;;;1.94;71.92
10992;BME280;5549;47.028;15.514;2023-02-16T04:31:30;97559.56;;;1.88;72.15
10992;BME280;5549;47.028;15.514;2023-02-16T04:33:58;97561.03;;;1.96;71.23
10992;BME280;5549;47.028;15.514;2023-02-16T04:36:27;97559.94;;;2.03;70.69
10992;BME280;5549;47.028;15.514;2023-02-16T04:38:54;97553.84;;;2.04;70.53
10992;BME280;5549;47.028;15.514;2023-02-16T04:41:22;97546.94;;;2.04;69.72
10992;BME280;5549;47.028;15.514;2023-02-16T04:43:53;97548.72;;;2.02;70.08
10992;BME280;5549;47.028;15.514;2023-02-16T04:46:21;97555.81;;;1.97;70.12
10992;BME280;5549;47.028;15.514;2023-02-16T04:48:49;97555.31;;;1.86;71.18
10992;BME280;5549;47.028;15.514;2023-02-16T04:51:16;97549.09;;;1.91;70.46
10992;BME280;5549;47.028;15.514;2023-02-16T04:53:45;97545.13;;;1.81;70.22
10992;BME280;5549;47.028;15.514;2023-02-16T04:56:13;97551.69;;;1.91;70.09
10992;BME280;5549;47.028;15.514;2023-02-16T04:58:40;97539.41;;;1.97;69.54
10992;BME280;5549;47.028;15.514;2023-02-16T05:01:08;97541.09;;;1.98;69.73
10992;BME280;5549;47.028;15.514;2023-02-16T05:03:46;97542.16;;;1.92;69.56
10992;BME280;5549;47.028;15.514;2023-02-16T05:06:14;97537.94;;;1.89;69.46
10992;BME280;5549;47.028;15.514;2023-02-16T05:08:41;97532.59;;;1.94;69.61
10992;BME280;5549;47.028;15.514;2023-02-16T05:11:11;97540.31;;;1.96;68.87
10992;BME280;5549;47.028;15.514;2023-02-16T05:13:56;97534.19;;;1.98;68.88
10992;BME280;5549;47.028;15.514;2023-02-16T05:16:42;97531.59;;;1.98;68.46
10992;BME280;5549;47.028;15.514;2023-02-16T05:19:12;97535.97;;;1.96;68.90
10992;BME280;5549;47.028;15.514;2023-02-16T05:21:42;97532.50;;;1.97;68.63
10992;BME280;5549;47.028;15.514;2023-02-16T05:24:10;97533.41;;;1.96;67.87
10992;BME280;5549;47.028;15.514;2023-02-16T05:26:41;97530.22;;;1.88;68.40
10992;BME280;5549;47.028;15.514;2023-02-16T05:29:09;97536.94;;;1.93;68.47
10992;BME280;5549;47.028;15.514;2023-02-16T05:31:38;97538.56;;;1.96;68.11
10992;BME280;5549;47.028;15.514;2023-02-16T05:34:08;97538.56;;;1.96;67.56
10992;BME280;5549;47.028;15.514;2023-02-16T05:36:36;97541.28;;;1.93;67.81
10992;BME280;5549;47.028;15.514;2023-02-16T05:39:04;97538.69;;;1.93;67.59
10992;BME280;5549;47.028;15.514;2023-02-16T05:41:31;97538.78;;;1.90;67.14
10992;BME280;5549;47.028;15.514;2023-02-16T05:44:03;97538.84;;;1.88;66.90
10992;BME280;5549;47.028;15.514;2023-02-16T05:46:33;97540.56;;;1.88;66.88
10992;BME280;5549;47.028;15.514;2023-02-16T05:49:04;97539.09;;;1.81;67.62
10992;BME280;5549;47.028;15.514;2023-02-16T05:51:33;97544.38;;;1.78;67.57
10992;BME280;5549;47.028;15.514;2023-02-16T05:54:00;97542.69;;;1.77;67.73
10992;BME280;5549;47.028;15.514;2023-02-16T05:56:29;97546.25;;;1.73;67.37
10992;BME280;5549;47.028;15.514;2023-02-16T05:58:57;97542.84;;;1.71;67.00
10992;BME280;5549;47.028;15.514;2023-02-16T06:01:27;97553.31;;;1.68;67.48
10992;BME280;5549;47.028;15.514;2023-02-16T06:03:57;97551.63;;;1.67;67.10
10992;BME280;5549;47.028;15.514;2023-02-16T06:06:25;97561.97;;;1.67;67.40
10992;BME280;5549;47.028;15.514;2023-02-16T06:08:53;97552.66;;;1.61;67.12
10992;BME280;5549;47.028;15.514;2023-02-16T06:11:21;97555.41;;;1.56;67.30
10992;BME280;5549;47.028;15.514;2023-02-16T06:14:06;97553.63;;;1.58;66.69
10992;BME280;5549;47.028;15.514;2023-02-16T06:16:37;97564.16;;;1.52;67.35
10992;BME280;5549;47.028;15.514;2023-02-16T06:19:06;97563.28;;;1.53;67.98
10992;BME280;5549;47.028;15.514;2023-02-16T06:21:38;97570.16;;;1.54;67.67
10992;BME280;5549;47.028;15.514;2023-02-16T06:24:07;97576.22;;;1.53;67.77
10992;BME280;5549;47.028;15.514;2023-02-16T06:26:35;97573.78;;;1.49;68.56
10992;BME280;5549;47.028;15.514;2023-02-16T06:29:03;97573.53;;;1.56;68.35
10992;BME280;5549;47.028;15.514;2023-02-16T06:31:31;97571.53;;;1.65;68.21
10992;BME280;5549;47.028;15.514;2023-02-16T06:34:00;97580.72;;;1.75;67.94
10992;BME280;5549;47.028;15.514;2023-02-16T06:36:31;97578.53;;;1.89;67.64
10992;BME280;5549;47.028;15.514;2023-02-16T06:39:02;97583.94;;;2.08;68.31
10992;BME280;5549;47.028;15.514;2023-02-16T06:41:29;97588.53;;;2.24;67.56
10992;BME280;5549;47.028;15.514;2023-02-16T06:44:05;97583.19;;;2.54;67.50
10992;BME280;5549;47.028;15.514;2023-02-16T06:46:35;97587.97;;;2.88;67.38
10992;BME280;5549;47.028;15.514;2023-02-16T06:49:04;97579.22;;;3.14;66.79
10992;BME280;5549;47.028;15.514;2023-02-16T06:51:32;97577.94;;;3.47;66.12
10992;BME280;5549;47.028;15.514;2023-02-16T06:54:02;97573.97;;;3.81;65.48
10992;BME280;5549;47.028;15.514;2023-02-16T06:56:30;97571.31;;;4.43;70.04
10992;BME280;5549;47.028;15.514;2023-02-16T06:58:57;97567.59;;;5.07;72.10
10992;BME280;5549;47.028;15.514;2023-02-16T07:01:25;97567.63;;;5.62;71.57
10992;BME280;5549;47.028;15.514;2023-02-16T07:03:54;97566.56;;;6.19;69.98
10992;BME280;5549;47.028;15.514;2023-02-16T07:06:26;97563.88;;;6.71;67.73
10992;BME280;5549;47.028;15.514;2023-02-16T07:08:54;97557.13;;;7.16;65.39
10992;BME280;5549;47.028;15.514;2023-02-16T07:11:21;97555.03;;;7.54;62.18
10992;BME280;5549;47.028;15.514;2023-02-16T07:13:49;97548.47;;;7.47;57.70
10992;BME280;5549;47.028;15.514;2023-02-16T07:16:17;97547.19;;;7.54;57.65
10992;BME280;5549;47.028;15.514;2023-02-16T07:18:46;97554.03;;;7.40;55.51
10992;BME280;5549;47.028;15.514;2023-02-16T07:21:14;97558.06;;;7.46;55.29
10992;BME280;5549;47.028;15.514;2023-02-16T07:23:43;97558.75;;;7.50;54.08
10992;BME280;5549;47.028;15.514;2023-02-16T07:26:13;97551.66;;;7.36;54.73
10992;BME280;5549;47.028;15.514;2023-02-16T07:28:41;97555.53;;;7.45;53.71
10992;BME280;5549;47.028;15.514;2023-02-16T07:31:14;97552.50;;;7.52;53.01
10992;BME280;5549;47.028;15.514;2023-02-16T07:33:42;97555.94;;;7.53;53.68
10992;BME280;5549;47.028;15.514;2023-02-16T07:36:12;97557.91;;;7.49;52.91
10992;BME280;5549;47.028;15.514;2023-02-16T07:38:40;97553.66;;;7.62;53.24
10992;BME280;5549;47.028;15.514;2023-02-16T07:41:09;97561.59;;;7.61;53.14
10992;BME280;5549;47.028;15.514;2023-02-16T07:43:37;97555.94;;;7.68;52.84
10992;BME280;5549;47.028;15.514;2023-02-16T07:46:08;97555.00;;;7.69;53.46
10992;BME280;5549;47.028;15.514;2023-02-16T07:48:37;97553.69;;;7.92;52.71
10992;BME280;5549;47.028;15.514;2023-02-16T07:51:06;97553.50;;;7.95;51.50
10992;BME280;5549;47.028;15.514;2023-02-16T07:53:35;97556.13;;;7.95;50.96
10992;BME280;5549;47.028;15.514;2023-02-16T07:56:04;97559.22;;;8.02;50.24
10992;BME280;5549;47.028;15.514;2023-02-16T07:58:33;97566.66;;;8.24;50.37
10992;BME280;5549;47.028;15.514;2023-02-16T08:01:09;97560.31;;;8.28;50.56
10992;BME280;5549;47.028;15.514;2023-02-16T08:03:37;97563.75;;;8.44;50.69
10992;BME280;5549;47.028;15.514;2023-02-16T08:06:06;97561.16;;;8.58;50.22
10992;BME280;5549;47.028;15.514;2023-02-16T08:08:34;97562.75;;;8.61;50.87
10992;BME280;5549;47.028;15.514;2023-02-16T08:11:08;97559.31;;;8.75;51.35
10992;BME280;5549;47.028;15.514;2023-02-16T08:13:38;97558.94;;;8.81;51.82
10992;BME280;5549;47.028;15.514;2023-02-16T08:16:09;97565.50;;;9.02;51.92
10992;BME280;5549;47.028;15.514;2023-02-16T08:18:37;97563.88;;;9.28;50.51
10992;BME280;5549;47.028;15.514;2023-02-16T08:21:09;97568.63;;;9.36;49.67
10992;BME280;5549;47.028;15.514;2023-02-16T08:23:40;97569.13;;;9.55;49.22
10992;BME280;5549;47.028;15.514;2023-02-16T08:26:09;97576.97;;;9.69;48.89
10992;BME280;5549;47.028;15.514;2023-02-16T08:28:41;97572.94;;;9.63;48.03
10992;BME280;5549;47.028;15.514;2023-02-16T08:31:11;97566.22;;;9.86;47.48
10992;BME280;5549;47.028;15.514;2023-02-16T08:33:41;97570.53;;;9.87;48.01
10992;BME280;5549;47.028;15.514;2023-02-16T08:36:16;97575.72;;;10.02;48.01
10992;BME280;5549;47.028;15.514;2023-02-16T08:38:46;97576.53;;;10.29;47.01
10992;BME280;5549;47.028;15.514;2023-02-16T08:41:16;97573.59;;;10.34;45.27
10992;BME280;5549;47.028;15.514;2023-02-16T08:43:45;97573.97;;;10.54;45.56
10992;BME280;5549;47.028;15.514;2023-02-16T08:46:12;97575.34;;;10.73;45.61
10992;BME280;5549;47.028;15.514;2023-02-16T08:48:40;97583.34;;;10.84;44.51
10992;BME280;5549;47.028;15.514;2023-02-16T08:51:13;97575.22;;;11.00;45.13
10992;BME280;5549;47.028;15.514;2023-02-16T08:53:41;97573.22;;;11.03;45.70
10992;BME280;5549;47.028;15.514;2023-02-16T08:56:12;97562.38;;;11.20;44.47
10992;BME280;5549;47.028;15.514;2023-02-16T08:58:43;97566.88;;;11.31;43.97
10992;BME280;5549;47.028;15.514;2023-02-16T09:01:13;97565.16;;;11.43;44.14
10992;BME280;5549;47.028;15.514;2023-02-16T09:03:43;97567.66;;;11.57;43.79
10992;BME280;5549;47.028;15.514;2023-02-16T09:06:13;97564.06;;;11.58;42.70
10992;BME280;5549;47.028;15.514;2023-02-16T09:08:43;97567.41;;;11.60;43.06
10992;BME280;5549;47.028;15.514;2023-02-16T09:11:13;97559.38;;;11.74;43.07
10992;BME280;5549;47.028;15.514;2023-02-16T09:13:45;97560.53;;;11.70;42.28
10992;BME280;5549;47.028;15.514;2023-02-16T09:16:16;97569.34;;;12.06;42.32
10992;BME280;5549;47.028;15.514;2023-02-16T09:18:47;97555.34;;;12.05;42.36
10992;BME280;5549;47.028;15.514;2023-02-16T09:21:17;97563.97;;;12.31;41.84
10992;BME280;5549;47.028;15.514;2023-02-16T09:23:48;97555.38;;;12.40;40.94
10992;BME280;5549;47.028;15.514;2023-02-16T09:26:17;97560.22;;;12.69;41.13
10992;BME280;5549;47.028;15.514;2023-02-16T09:28:48;97557.59;;;12.80;41.16
10992;BME280;5549;47.028;15.514;2023-02-16T09:31:20;97553.31;;;13.01;40.47
10992;BME280;5549;47.028;15.514;2023-02-16T09:33:52;97552.34;;;13.13;40.49
10992;BME280;5549;47.028;15.514;2023-02-16T09:36:21;97552.59;;;13.10;39.46
10992;BME280;5549;47.028;15.514;2023-02-16T09:38:52;97551.66;;;13.23;38.35
10992;BME280;5549;47.028;15.514;2023-02-16T09:41:34;97553.56;;;13.32;39.17
10992;BME280;5549;47.028;15.514;2023-02-16T09:44:21;97551.97;;;13.52;38.36
10992;BME280;5549;47.028;15.514;2023-02-16T09:46:55;97556.00;;;13.67;38.07
10992;BME280;5549;47.028;15.514;2023-02-16T09:49:29;97556.66;;;14.02;38.55
10992;BME280;5549;47.028;15.514;2023-02-16T09:52:03;97556.41;;;14.05;37.83
10992;BME280;5549;47.028;15.514;2023-02-16T09:54:44;97557.16;;;14.28;36.89
10992;BME280;5549;47.028;15.514;2023-02-16T09:57:36;97562.31;;;14.30;37.30
10992;BME280;5549;47.028;15.514;2023-02-16T10:00:16;97558.34;;;14.56;37.10
10992;BME280;5549;47.028;15.514;2023-02-16T10:02:56;97556.66;;;14.76;38.29
10992;BME280;5549;47.028;15.514;2023-02-16T10:05:29;97564.78;;;14.63;37.22
10992;BME280;5549;47.028;15.514;2023-02-16T10:08:03;97558.16;;;14.48;36.45
10992;BME280;5549;47.028;15.514;2023-02-16T10:10:41;97561.38;;;13.76;37.34
10992;BME280;5549;47.028;15.514;2023-02-16T10:13:18;97573.25;;;13.93;37.27
10992;BME280;5549;47.028;15.514;2023-02-16T10:15:51;97571.13;;;13.87;36.59
10992;BME280;5549;47.028;15.514;2023-02-16T10:18:27;97560.44;;;13.66;35.95
10992;BME280;5549;47.028;15.514;2023-02-16T10:20:59;97557.84;;;13.55;36.69
10992;BME280;5549;47.028;15.514;2023-02-16T10:23:44;97556.88;;;13.56;36.46
10992;BME280;5549;47.028;15.514;2023-02-16T10:26:17;97564.06;;;13.54;36.65
10992;BME280;5549;47.028;15.514;2023-02-16T10:28:49;97554.19;;;13.78;36.78
10992;BME280;5549;47.028;15.514;2023-02-16T10:31:25;97558.28;;;13.71;35.53
10992;BME280;5549;47.028;15.514;2023-02-16T10:34:18;97555.88;;;13.79;36.52
10992;BME280;5549;47.028;15.514;2023-02-16T10:37:16;97551.00;;;14.07;36.08
10992;BME280;5549;47.028;15.514;2023-02-16T10:39:50;97549.28;;;14.17;35.91
10992;BME280;5549;47.028;15.514;2023-02-16T10:42:33;97549.53;;;14.35;37.03
10992;BME280;5549;47.028;15.514;2023-02-16T10:45:06;97546.22;;;14.01;36.43
10992;BME280;5549;47.028;15.514;2023-02-16T10:47:45;97545.72;;;14.28;36.03
10992;BME280;5549;47.028;15.514;2023-02-16T10:50:22;97541.28;;;14.28;35.92
10992;BME280;5549;47.028;15.514;2023-02-16T10:52:58;97550.75;;;14.31;36.77
10992;BME280;5549;47.028;15.514;2023-02-16T10:55:27;97535.13;;;14.60;36.28
10992;BME280;5549;47.028;15.514;2023-02-16T10:57:57;97534.94;;;14.52;35.51
10992;BME280;5549;47.028;15.514;2023-02-16T11:00:47;97527.00;;;15.03;36.75
10992;BME280;5549;47.028;15.514;2023-02-16T11:03:22;97523.91;;;15.38;36.15
10992;BME280;5549;47.028;15.514;2023-02-16T11:05:51;97521.28;;;15.48;35.19
10992;BME280;5549;47.028;15.514;2023-02-16T11:08:22;97514.56;;;15.74;35.32
10992;BME280;5549;47.028;15.514;2023-02-16T11:10:52;97510.75;;;15.57;34.24
10992;BME280;5549;47.028;15.514;2023-02-16T11:13:28;97505.47;;;15.57;34.93
10992;BME280;5549;47.028;15.514;2023-02-16T11:16:02;97515.41;;;14.94;33.94
10992;BME280;5549;47.028;15.514;2023-02-16T11:18:37;97506.41;;;15.06;34.77
10992;BME280;5549;47.028;15.514;2023-02-16T11:21:08;97504.53;;;15.28;34.90
10992;BME280;5549;47.028;15.514;2023-02-16T11:23:38;97506.09;;;15.40;34.21
10992;BME280;5549;47.028;15.514;2023-02-16T11:26:21;97509.44;;;15.92;35.85
10992;BME280;5549;47.028;15.514;2023-02-16T11:28:51;97514.88;;;16.19;34.80
10992;BME280;5549;47.028;15.514;2023-02-16T11:31:23;97504.25;;;16.19;32.86
10992;BME280;5549;47.028;15.514;2023-02-16T11:33:58;97515.78;;;16.66;34.77
10992;BME280;5549;47.028;15.514;2023-02-16T11:36:32;97505.59;;;17.09;34.72
10992;BME280;5549;47.028;15.514;2023-02-16T11:39:04;97506.72;;;17.43;34.24
10992;BME280;5549;47.028;15.514;2023-02-16T11:41:33;97500.97;;;17.66;33.81
10992;BME280;5549;47.028;15.514;2023-02-16T11:44:02;97495.94;;;18.08;33.26
10992;BME280;5549;47.028;15.514;2023-02-16T11:46:39;97491.41;;;18.44;32.50
10992;BME280;5549;47.028;15.514;2023-02-16T11:49:32;97484.47;;;18.51;29.68
10992;BME280;5549;47.028;15.514;2023-02-16T11:52:19;97485.59;;;18.22;30.93
10992;BME280;5549;47.028;15.514;2023-02-16T11:54:54;97482.78;;;18.24;30.55
10992;BME280;5549;47.028;15.514;2023-02-16T11:57:25;97477.75;;;18.39;29.82
10992;BME280;5549;47.028;15.514;2023-02-16T11:59:54;97474.25;;;18.38;28.41
10992;BME280;5549;47.028;15.514;2023-02-16T12:05:30;97469.69;;;17.87;29.44
10992;BME280;5549;47.028;15.514;2023-02-16T12:08:26;97467.81;;;18.23;31.36
10992;BME280;5549;47.028;15.514;2023-02-16T12:11:12;97465.09;;;17.61;30.96
10992;BME280;5549;47.028;15.514;2023-02-16T12:13:54;97458.91;;;17.43;30.43
10992;BME280;5549;47.028;15.514;2023-02-16T12:16:34;97452.34;;;17.65;30.24
10992;BME280;5549;47.028;15.514;2023-02-16T12:19:26;97454.88;;;17.39;30.14
10992;BME280;5549;47.028;15.514;2023-02-16T12:22:14;97445.94;;;17.13;30.24
10992;BME280;5549;47.028;15.514;2023-02-16T12:24:54;97444.06;;;16.95;30.84
10992;BME280;5549;47.028;15.514;2023-02-16T12:27:32;97445.44;;;16.99;31.17
10992;BME280;5549;47.028;15.514;2023-02-16T12:30:11;97436.47;;;16.73;31.57
10992;BME280;5549;47.028;15.514;2023-02-16T12:33:02;97435.31;;;17.40;31.31
10992;BME280;5549;47.028;15.514;2023-02-16T12:35:54;97440.91;;;17.10;31.20
10992;BME280;5549;47.028;15.514;2023-02-16T12:38:40;97438.31;;;17.00;30.69
10992;BME280;5549;47.028;15.514;2023-02-16T12:41:25;97428.72;;;16.89;30.88
10992;BME280;5549;47.028;15.514;2023-02-16T12:43:58;97426.47;;;16.94;30.46
10992;BME280;5549;47.028;15.514;2023-02-16T12:46:31;97414.00;;;17.05;30.69
10992;BME280;5549;47.028;15.514;2023-02-16T12:49:06;97418.03;;;16.81;31.01
10992;BME280;5549;47.028;15.514;2023-02-16T12:51:42;97421.25;;;16.75;30.82
10992;BME280;5549;47.028;15.514;2023-02-16T12:54:20;97408.00;;;17.03;30.50
10992;BME280;5549;47.028;15.514;2023-02-16T12:56:59;97410.00;;;16.54;30.71
10992;BME280;5549;47.028;15.514;2023-02-16T12:59:37;97403.00;;;16.72;30.46
10992;BME280;5549;47.028;15.514;2023-02-16T13:02:14;97412.75;;;16.72;30.44
10992;BME280;5549;47.028;15.514;2023-02-16T13:04:48;97411.09;;;16.71;30.31
10992;BME280;5549;47.028;15.514;2023-02-16T13:07:29;97407.47;;;16.62;31.20
10992;BME280;5549;47.028;15.514;2023-02-16T13:10:06;97407.31;;;17.00;31.18
10992;BME280;5549;47.028;15.514;2023-02-16T13:12:46;97404.50;;;16.28;30.12
10992;BME280;5549;47.028;15.514;2023-02-16T13:15:19;97405.41;;;16.56;30.54
10992;BME280;5549;47.028;15.514;2023-02-16T13:17:52;97404.56;;;16.55;31.85
10992;BME280;5549;47.028;15.514;2023-02-16T13:20:25;97393.22;;;16.63;30.91
10992;BME280;5549;47.028;15.514;2023-02-16T13:23:19;97390.38;;;16.84;30.58
10992;BME280;5549;47.028;15.514;2023-02-16T13:26:24;97388.13;;;17.07;30.49
10992;BME280;5549;47.028;15.514;2023-02-16T13:29:23;97391.03;;;17.13;29.75
10992;BME280;5549;47.028;15.514;2023-02-16T13:32:05;97392.28;;;16.91;29.89
10992;BME280;5549;47.028;15.514;2023-02-16T13:35:01;97390.75;;;16.89;29.60
10992;BME280;5549;47.028;15.514;2023-02-16T13:38:00;97384.88;;;17.13;30.15
10992;BME280;5549;47.028;15.514;2023-02-16T13:41:10;97387.31;;;17.24;30.41
10992;BME280;5549;47.028;15.514;2023-02-16T13:43:51;97386.91;;;17.01;29.59
10992;BME280;5549;47.028;15.514;2023-02-16T13:46:25;97382.09;;;17.14;30.02
10992;BME280;5549;47.028;15.514;2023-02-16T13:48:53;97384.00;;;17.22;30.42